createdAt,value
2023-03-26T00:01:08.229Z,15.05
2023-03-26T00:03:57.976Z,12.60
2023-03-26T00:06:48.981Z,12.18
2023-03-26T00:09:39.503Z,14.40
2023-03-26T00:12:30.253Z,12.75
2023-03-26T00:15:19.527Z,12.43
2023-03-26T00:18:09.383Z,9.38
2023-03-26T00:20:58.505Z,11.85
2023-03-26T00:23:47.520Z,14.15
2023-03-26T00:26:38.942Z,11.57
2023-03-26T00:29:33.386Z,10.30
2023-03-26T00:32:22.176Z,10.90
2023-03-26T00:35:11.530Z,11.73
2023-03-26T00:38:01.208Z,10.32
2023-03-26T00:40:51.023Z,12.13
2023-03-26T00:43:41.567Z,11.82
2023-03-26T00:46:32.464Z,10.57
2023-03-26T00:49:21.265Z,11.38
2023-03-26T00:52:10.218Z,11.18
2023-03-26T00:54:58.902Z,13.85
2023-03-26T00:57:47.544Z,10.98
2023-03-26T01:00:40.640Z,10.55
2023-03-26T01:03:33.992Z,10.23
2023-03-26T01:06:27.948Z,9.85
2023-03-26T01:09:20.255Z,10.60
2023-03-26T01:12:12.521Z,9.55
2023-03-26T01:15:04.869Z,10.90
2023-03-26T01:17:58.117Z,11.52
2023-03-26T01:20:50.081Z,12.30
2023-03-26T01:23:44.133Z,10.00
2023-03-26T01:26:54.227Z,9.45
2023-03-26T01:29:48.278Z,10.45
2023-03-26T01:32:49.763Z,10.18
2023-03-26T01:35:45.924Z,9.65
2023-03-26T01:38:46.783Z,10.50
2023-03-26T01:41:44.675Z,10.50
2023-03-26T01:44:40.012Z,8.88
2023-03-26T01:47:30.481Z,8.77
2023-03-26T01:50:19.495Z,9.75
2023-03-26T01:53:10.325Z,9.55
2023-03-26T01:56:07.485Z,8.52
2023-03-26T01:59:18.167Z,9.38
2023-03-26T02:02:16.776Z,9.57
2023-03-26T02:05:13.977Z,8.57
2023-03-26T02:08:12.967Z,7.57
2023-03-26T02:11:05.555Z,10.30
2023-03-26T02:13:54.771Z,8.27
2023-03-26T02:16:47.270Z,10.02
2023-03-26T02:19:36.027Z,8.32
2023-03-26T02:22:30.143Z,7.85
2023-03-26T02:25:22.384Z,9.02
2023-03-26T02:28:12.379Z,8.15
2023-03-26T02:31:02.525Z,6.38
2023-03-26T02:33:53.933Z,7.88
2023-03-26T02:36:43.294Z,7.68
2023-03-26T02:39:32.609Z,7.38
2023-03-26T02:42:26.764Z,6.57
2023-03-26T02:45:16.048Z,6.90
2023-03-26T02:48:23.259Z,8.27
2023-03-26T02:51:22.540Z,8.70
2023-03-26T02:54:24.052Z,7.10
2023-03-26T02:57:39.069Z,10.38
2023-03-26T03:00:30.941Z,7.75
2023-03-26T03:03:36.525Z,6.45
2023-03-26T03:06:44.828Z,8.40
2023-03-26T03:09:34.852Z,6.38
2023-03-26T03:12:46.731Z,6.70
2023-03-26T03:15:36.034Z,6.57
2023-03-26T03:18:24.970Z,7.30
2023-03-26T03:21:14.038Z,6.38
2023-03-26T03:24:04.360Z,5.93
2023-03-26T03:26:58.063Z,6.38
2023-03-26T03:29:59.165Z,7.50
2023-03-26T03:33:19.705Z,6.90
2023-03-26T03:36:19.705Z,8.02
2023-03-26T03:39:11.470Z,7.25
2023-03-26T03:42:03.413Z,8.18
2023-03-26T03:44:52.707Z,7.22
2023-03-26T03:48:01.489Z,6.43
2023-03-26T03:50:58.968Z,6.20
2023-03-26T03:53:52.844Z,6.00
2023-03-26T03:56:56.364Z,5.07
2023-03-26T03:59:54.419Z,6.45
2023-03-26T04:02:46.307Z,5.72
2023-03-26T04:05:36.573Z,7.05
2023-03-26T04:08:26.530Z,6.78
2023-03-26T04:11:17.469Z,7.50
2023-03-26T04:14:36.465Z,6.82
2023-03-26T04:17:30.937Z,7.50
2023-03-26T04:20:21.008Z,6.45
2023-03-26T04:23:14.241Z,5.72
2023-03-26T04:26:10.653Z,6.97
2023-03-26T04:29:22.114Z,5.85
2023-03-26T04:32:19.634Z,7.03
2023-03-26T04:35:08.973Z,5.55
2023-03-26T04:37:57.947Z,6.90
2023-03-26T04:40:55.152Z,5.85
2023-03-26T04:44:07.065Z,8.52
2023-03-26T04:47:03.838Z,5.00
2023-03-26T04:50:00.470Z,6.60
2023-03-26T04:52:49.649Z,7.10
2023-03-26T04:56:22.452Z,6.28
2023-03-26T04:59:43.190Z,6.25
2023-03-26T05:02:42.031Z,6.57
2023-03-26T05:05:36.261Z,7.53
2023-03-26T05:08:28.906Z,7.13
2023-03-26T05:11:17.806Z,7.78
2023-03-26T05:14:07.056Z,7.75
2023-03-26T05:16:55.942Z,7.47
2023-03-26T05:19:47.146Z,7.28
2023-03-26T05:22:41.136Z,6.63
2023-03-26T05:25:47.331Z,7.10
2023-03-26T05:28:42.209Z,7.85
2023-03-26T05:31:38.113Z,8.00
2023-03-26T05:34:27.500Z,9.60
2023-03-26T05:37:17.400Z,6.43
2023-03-26T05:40:21.556Z,7.72
2023-03-26T05:43:22.221Z,9.93
2023-03-26T05:46:49.668Z,6.32
2023-03-26T05:49:44.217Z,9.02
2023-03-26T05:52:33.751Z,7.40
2023-03-26T05:55:42.486Z,6.63
2023-03-26T05:58:50.921Z,8.82
2023-03-26T06:02:18.650Z,8.50
2023-03-26T06:05:37.440Z,7.68
2023-03-26T06:08:34.777Z,6.90
2023-03-26T06:11:24.992Z,6.07
2023-03-26T06:14:13.837Z,9.98
2023-03-26T06:17:16.755Z,6.85
2023-03-26T06:20:32.170Z,6.25
2023-03-26T06:23:23.682Z,6.78
2023-03-26T06:26:28.926Z,5.32
2023-03-26T06:29:25.364Z,6.50
2023-03-26T06:32:37.344Z,7.70
2023-03-26T06:35:32.686Z,5.97
2023-03-26T06:38:21.540Z,8.48
2023-03-26T06:41:10.885Z,5.55
2023-03-26T06:44:01.642Z,6.95
2023-03-26T06:47:09.155Z,6.18
2023-03-26T06:50:18.435Z,7.75
2023-03-26T06:53:25.834Z,5.40
2023-03-26T06:56:46.892Z,6.03
2023-03-26T07:00:09.972Z,6.57
2023-03-26T07:03:17.666Z,5.70
2023-03-26T07:06:34.133Z,7.18
2023-03-26T07:09:41.708Z,4.97
2023-03-26T07:12:59.400Z,6.20
2023-03-26T07:16:25.087Z,6.35
2023-03-26T07:19:23.148Z,5.18
2023-03-26T07:22:20.559Z,5.15
2023-03-26T07:25:28.852Z,9.05
2023-03-26T07:28:43.171Z,8.40
2023-03-26T07:32:26.964Z,7.65
2023-03-26T07:35:47.857Z,8.32
2023-03-26T07:39:01.360Z,5.15
2023-03-26T07:42:05.220Z,6.15
2023-03-26T07:45:35.411Z,6.55
2023-03-26T07:48:55.041Z,5.28
2023-03-26T07:51:55.239Z,6.18
2023-03-26T07:55:08.131Z,5.63
2023-03-26T07:58:41.226Z,4.78
2023-03-26T08:02:20.167Z,4.53
2023-03-26T08:05:29.413Z,5.50
2023-03-26T08:08:45.993Z,4.22
2023-03-26T08:12:08.100Z,5.40
2023-03-26T08:15:05.521Z,4.22
2023-03-26T08:17:59.527Z,4.00
2023-03-26T08:20:54.725Z,5.47
2023-03-26T08:23:55.635Z,2.50
2023-03-26T08:26:53.196Z,6.30
2023-03-26T08:29:46.377Z,6.30
2023-03-26T08:32:36.221Z,6.30
2023-03-26T08:35:25.711Z,4.82
2023-03-26T08:38:19.076Z,5.65
2023-03-26T08:41:55.760Z,4.82
2023-03-26T08:45:20.871Z,3.88
2023-03-26T08:48:34.668Z,5.47
2023-03-26T08:52:00.139Z,5.80
2023-03-26T08:55:06.289Z,5.57
2023-03-26T08:58:25.664Z,3.75
2023-03-26T09:01:55.687Z,4.97
2023-03-26T09:05:16.242Z,6.05
2023-03-26T09:08:54.165Z,4.80
2023-03-26T09:12:26.052Z,4.13
2023-03-26T09:15:51.488Z,4.07
2023-03-26T09:19:08.172Z,5.55
2023-03-26T09:22:29.915Z,5.65
2023-03-26T09:25:45.153Z,6.15
2023-03-26T09:29:12.524Z,5.05
2023-03-26T09:32:57.789Z,3.90
2023-03-26T09:36:06.026Z,5.50
2023-03-26T09:38:59.624Z,3.33
2023-03-26T09:42:00.900Z,5.47
2023-03-26T09:45:25.599Z,6.68
2023-03-26T09:48:36.082Z,4.95
2023-03-26T09:51:49.154Z,5.60
2023-03-26T09:55:08.525Z,4.88
2023-03-26T09:58:29.755Z,5.25
2023-03-26T10:01:27.414Z,3.90
2023-03-26T10:07:23.083Z,3.45
2023-03-26T10:10:21.841Z,4.22
2023-03-26T10:13:22.891Z,3.47
2023-03-26T10:16:22.584Z,5.15
2023-03-26T10:19:30.923Z,4.30
2023-03-26T10:22:42.489Z,4.00
2023-03-26T10:25:42.164Z,3.83
2023-03-26T10:28:48.301Z,3.67
2023-03-26T10:31:48.447Z,5.05
2023-03-26T10:34:51.816Z,3.83
2023-03-26T10:38:02.741Z,3.42
2023-03-26T10:41:00.955Z,3.85
2023-03-26T10:44:10.667Z,2.47
2023-03-26T10:47:15.054Z,2.40
2023-03-26T10:50:27.610Z,2.47
2023-03-26T10:53:30.465Z,1.38
2023-03-26T10:56:25.772Z,1.65
2023-03-26T10:59:16.410Z,1.10
2023-03-26T11:02:34.340Z,2.95
2023-03-26T11:05:41.452Z,1.05
2023-03-26T11:08:40.803Z,1.10
2023-03-26T11:11:33.794Z,3.72
2023-03-26T11:14:34.163Z,3.20
2023-03-26T11:17:40.506Z,3.05
2023-03-26T11:20:38.796Z,3.00
2023-03-26T11:23:38.270Z,4.10
2023-03-26T11:26:34.584Z,3.20
2023-03-26T11:29:45.352Z,2.83
2023-03-26T11:32:42.667Z,3.55
2023-03-26T11:35:40.140Z,4.88
2023-03-26T11:38:38.473Z,2.95
2023-03-26T11:41:31.237Z,3.22
2023-03-26T11:44:30.866Z,2.70
2023-03-26T11:47:24.647Z,3.60
2023-03-26T11:50:19.191Z,1.95
2023-03-26T11:53:13.768Z,2.90
2023-03-26T11:56:08.319Z,2.17
2023-03-26T11:59:02.573Z,3.33
2023-03-26T12:01:56.751Z,3.30
2023-03-26T12:04:47.359Z,2.35
2023-03-26T12:07:37.329Z,2.20
2023-03-26T12:10:33.038Z,2.13
2023-03-26T12:13:33.665Z,2.00
2023-03-26T12:16:23.777Z,2.05
2023-03-26T12:19:20.980Z,2.17
2023-03-26T12:22:31.936Z,2.55
2023-03-26T12:25:23.226Z,2.42
2023-03-26T12:28:20.390Z,3.53
2023-03-26T12:31:18.342Z,2.15
2023-03-26T12:34:14.656Z,2.65
2023-03-26T12:37:05.253Z,2.05
2023-03-26T12:40:16.034Z,2.45
2023-03-26T12:44:48.638Z,2.63
2023-03-26T12:47:57.131Z,3.50
2023-03-26T12:49:43.333Z,2.22
2023-03-26T12:52:57.930Z,2.50
2023-03-26T12:55:54.796Z,3.50
2023-03-26T12:59:03.965Z,3.83
2023-03-26T13:02:02.273Z,3.40
2023-03-26T13:05:07.127Z,3.85
2023-03-26T13:08:08.142Z,3.88
2023-03-26T13:11:08.206Z,3.72
2023-03-26T13:14:08.797Z,4.65
2023-03-26T13:17:03.982Z,4.18
2023-03-26T13:20:12.656Z,2.13
2023-03-26T13:23:09.086Z,2.35
2023-03-26T13:26:09.152Z,3.83
2023-03-26T13:29:06.142Z,6.25
2023-03-26T13:32:07.205Z,2.35
2023-03-26T13:35:08.095Z,3.28
2023-03-26T13:38:07.156Z,2.30
2023-03-26T13:41:04.676Z,4.70
2023-03-26T13:44:07.315Z,2.75
2023-03-26T13:47:01.403Z,2.92
2023-03-26T13:49:55.945Z,2.90
2023-03-26T13:52:51.666Z,6.75
2023-03-26T13:55:47.120Z,2.40
2023-03-26T13:58:40.006Z,2.47
2023-03-26T14:01:35.020Z,2.88
2023-03-26T14:04:32.442Z,2.30
2023-03-26T14:07:26.824Z,2.85
2023-03-26T14:10:20.755Z,1.33
2023-03-26T14:13:17.650Z,4.35
2023-03-26T14:16:15.217Z,7.93
2023-03-26T14:19:20.296Z,2.50
2023-03-26T14:22:20.396Z,2.22
2023-03-26T14:25:21.308Z,1.40
2023-03-26T14:28:25.476Z,2.97
2023-03-26T14:31:23.740Z,1.52
2023-03-26T14:34:24.446Z,2.67
2023-03-26T14:37:33.620Z,1.92
2023-03-26T14:40:52.620Z,2.95
2023-03-26T14:44:06.365Z,3.42
2023-03-26T14:47:08.075Z,2.78
2023-03-26T14:50:37.106Z,2.83
2023-03-26T14:53:33.542Z,2.88
2023-03-26T14:57:08.138Z,3.42
2023-03-26T15:00:38.372Z,2.20
2023-03-26T15:04:23.996Z,2.60
2023-03-26T15:07:35.061Z,2.92
2023-03-26T15:10:51.143Z,3.38
2023-03-26T15:13:54.817Z,2.13
2023-03-26T15:17:23.239Z,2.28
2023-03-26T15:20:45.913Z,3.05
2023-03-26T15:24:09.804Z,3.65
2023-03-26T15:27:24.805Z,2.47
2023-03-26T15:30:46.112Z,4.63
2023-03-26T15:34:18.619Z,4.75
2023-03-26T15:37:46.500Z,7.75
2023-03-26T15:40:46.832Z,2.97
2023-03-26T15:44:24.299Z,2.50
2023-03-26T15:47:51.521Z,3.92
2023-03-26T15:50:49.410Z,3.00
2023-03-26T15:53:46.501Z,2.92
2023-03-26T15:57:07.319Z,3.63
2023-03-26T16:00:15.400Z,4.63
2023-03-26T16:03:27.388Z,2.95
2023-03-26T16:06:31.393Z,3.63
2023-03-26T16:09:38.906Z,3.85
2023-03-26T16:12:36.746Z,7.35
2023-03-26T16:15:32.473Z,3.45
2023-03-26T16:18:29.873Z,3.33
2023-03-26T16:21:39.924Z,3.85
2023-03-26T16:24:33.996Z,3.47
2023-03-26T16:27:35.433Z,3.25
2023-03-26T16:30:30.617Z,3.28
2023-03-26T16:33:21.482Z,5.68
2023-03-26T16:36:26.185Z,2.95
2023-03-26T16:39:24.937Z,3.22
2023-03-26T16:42:40.243Z,4.43
2023-03-26T16:45:34.057Z,4.50
2023-03-26T16:48:29.928Z,4.30
2023-03-26T16:51:27.048Z,3.85
2023-03-26T16:54:24.313Z,5.70
2023-03-26T16:57:24.467Z,4.63
2023-03-26T17:00:42.686Z,4.22
2023-03-26T17:03:43.631Z,4.50
2023-03-26T17:06:53.428Z,3.30
2023-03-26T17:09:55.734Z,4.25
2023-03-26T17:12:52.097Z,5.18
2023-03-26T17:15:49.714Z,6.78
2023-03-26T17:18:47.591Z,5.47
2023-03-26T17:21:47.563Z,6.57
2023-03-26T17:24:46.000Z,4.50
2023-03-26T17:28:01.692Z,7.25
2023-03-26T17:31:04.364Z,5.00
2023-03-26T17:33:53.613Z,5.00
2023-03-26T17:36:44.321Z,4.57
2023-03-26T17:40:12.395Z,6.35
2023-03-26T17:43:06.340Z,5.38
2023-03-26T17:46:03.099Z,5.63
2023-03-26T17:48:59.498Z,5.50
2023-03-26T17:51:51.454Z,5.53
2023-03-26T17:54:45.374Z,4.78
2023-03-26T17:57:42.200Z,6.07
2023-03-26T18:00:36.389Z,5.57
2023-03-26T18:03:34.949Z,5.18
2023-03-26T18:06:42.162Z,6.65
2023-03-26T18:09:46.187Z,8.52
2023-03-26T18:12:54.579Z,10.93
2023-03-26T18:15:51.763Z,9.52
2023-03-26T18:18:49.904Z,7.25
2023-03-26T18:21:41.302Z,6.85
2023-03-26T18:24:35.464Z,7.07
2023-03-26T18:27:25.144Z,8.30
2023-03-26T18:30:17.395Z,7.03
2023-03-26T18:33:14.893Z,6.28
2023-03-26T18:36:05.867Z,9.80
2023-03-26T18:38:59.389Z,9.13
2023-03-26T18:41:48.502Z,9.15
2023-03-26T18:44:37.867Z,10.63
2023-03-26T18:47:28.641Z,9.70
2023-03-26T18:50:21.734Z,11.55
2023-03-26T18:53:18.392Z,10.52
2023-03-26T18:56:21.128Z,12.77
2023-03-26T18:59:30.201Z,10.07
2023-03-26T19:02:20.059Z,11.32
2023-03-26T19:05:15.288Z,12.60
2023-03-26T19:08:06.557Z,17.63
2023-03-26T19:10:57.710Z,13.20
2023-03-26T19:13:59.384Z,12.02
2023-03-26T19:16:51.245Z,11.43
2023-03-26T19:19:40.688Z,12.93
2023-03-26T19:22:31.665Z,13.10
2023-03-26T19:25:23.755Z,14.63
2023-03-26T19:28:20.152Z,15.35
2023-03-26T19:31:12.457Z,14.07
2023-03-26T19:34:05.002Z,14.40
2023-03-26T19:36:59.510Z,15.60
2023-03-26T19:39:50.441Z,13.82
2023-03-26T19:42:43.751Z,16.70
2023-03-26T19:45:38.922Z,15.70
2023-03-26T19:48:49.945Z,15.60
2023-03-26T19:51:38.955Z,15.30
2023-03-26T19:54:28.034Z,22.33
2023-03-26T19:57:16.987Z,17.90
2023-03-26T20:00:13.725Z,16.67
2023-03-26T20:03:04.616Z,16.73
2023-03-26T20:05:53.377Z,16.92
2023-03-26T20:08:42.852Z,16.35
2023-03-26T20:11:36.720Z,17.52
2023-03-26T20:14:26.643Z,16.73
2023-03-26T20:17:17.367Z,16.60
2023-03-26T20:20:12.250Z,20.87
2023-03-26T20:23:01.711Z,20.42
2023-03-26T20:25:54.580Z,16.05
2023-03-26T20:28:48.014Z,16.65
2023-03-26T20:31:42.642Z,18.27
2023-03-26T20:34:32.326Z,16.38
2023-03-26T20:37:22.612Z,17.60
2023-03-26T20:40:12.552Z,17.65
2023-03-26T20:43:01.339Z,18.70
2023-03-26T20:45:50.043Z,19.92
2023-03-26T20:48:38.929Z,17.73
2023-03-26T20:51:29.082Z,18.88
2023-03-26T20:54:21.570Z,18.50
2023-03-26T20:57:11.886Z,19.05
2023-03-26T21:00:01.114Z,21.52
2023-03-26T21:02:53.058Z,20.90
2023-03-26T21:05:42.928Z,19.98
2023-03-26T21:08:41.950Z,20.70
2023-03-26T21:11:46.883Z,22.88
2023-03-26T21:14:39.372Z,21.30
2023-03-26T21:17:28.693Z,18.10
2023-03-26T21:20:19.218Z,26.48
2023-03-26T21:23:14.393Z,19.58
2023-03-26T21:26:08.037Z,20.65
2023-03-26T21:28:59.348Z,20.80
2023-03-26T21:31:50.484Z,20.80
2023-03-26T21:34:47.873Z,19.00
2023-03-26T21:37:42.826Z,20.00
2023-03-26T21:40:32.292Z,19.65
2023-03-26T21:43:22.334Z,21.95
2023-03-26T21:46:14.222Z,21.63
2023-03-26T21:49:03.895Z,23.05
2023-03-26T21:51:53.423Z,19.70
2023-03-26T21:54:43.296Z,24.88
2023-03-26T21:57:52.514Z,20.52
2023-03-26T22:00:53.776Z,21.35
2023-03-26T22:03:55.680Z,21.75
2023-03-26T22:06:50.042Z,17.75
2023-03-26T22:09:39.256Z,19.25
2023-03-26T22:12:27.937Z,20.80
2023-03-26T22:15:18.340Z,21.77
2023-03-26T22:18:07.516Z,20.95
2023-03-26T22:20:59.276Z,20.15
2023-03-26T22:23:52.868Z,21.17
2023-03-26T22:26:41.573Z,24.80
2023-03-26T22:29:30.294Z,24.45
2023-03-26T22:32:19.026Z,21.98
2023-03-26T22:35:08.665Z,24.73
2023-03-26T22:38:00.810Z,25.23
2023-03-26T22:40:57.329Z,21.25
2023-03-26T22:43:47.345Z,27.33
2023-03-26T22:46:36.113Z,19.60
2023-03-26T22:49:27.358Z,20.85
2023-03-26T22:52:16.128Z,20.85
2023-03-26T22:55:06.742Z,22.38
2023-03-26T22:57:55.832Z,20.15
2023-03-26T23:00:45.879Z,20.97
2023-03-26T23:03:35.718Z,22.03
2023-03-26T23:06:25.293Z,20.10
2023-03-26T23:09:14.881Z,20.52
2023-03-26T23:12:05.863Z,23.25
2023-03-26T23:14:58.395Z,21.08
2023-03-26T23:17:54.863Z,22.55
2023-03-26T23:20:52.885Z,22.27
2023-03-26T23:23:42.305Z,21.90
2023-03-26T23:26:43.895Z,25.27
2023-03-26T23:29:38.027Z,22.23
2023-03-26T23:32:28.187Z,22.30
2023-03-26T23:35:17.114Z,23.13
2023-03-26T23:38:07.024Z,22.27
2023-03-26T23:40:57.811Z,22.23
2023-03-26T23:43:53.998Z,23.17
2023-03-26T23:46:45.790Z,21.37
2023-03-26T23:49:34.444Z,21.30
2023-03-26T23:52:23.598Z,22.15
2023-03-26T23:55:12.284Z,22.70
2023-03-26T23:58:01.110Z,24.33
